createdAt,value
2023-04-02T00:01:02.079Z,2.76
2023-04-02T00:03:42.627Z,2.79
2023-04-02T00:06:33.325Z,2.79
2023-04-02T00:09:16.388Z,2.77
2023-04-02T00:11:48.758Z,2.73
2023-04-02T00:14:22.021Z,2.71
2023-04-02T00:16:49.265Z,2.69
2023-04-02T00:19:24.233Z,2.68
2023-04-02T00:21:52.486Z,2.65
2023-04-02T00:24:22.348Z,2.64
2023-04-02T00:26:52.099Z,2.66
2023-04-02T00:29:20.031Z,2.67
2023-04-02T00:31:49.969Z,2.68
2023-04-02T00:34:41.339Z,2.65
2023-04-02T00:37:08.168Z,2.65
2023-04-02T00:39:42.279Z,2.60
2023-04-02T00:42:11.656Z,2.64
2023-04-02T00:44:43.310Z,2.64
2023-04-02T00:47:22.848Z,2.64
2023-04-02T00:49:57.275Z,2.65
2023-04-02T00:52:28.108Z,2.64
2023-04-02T00:55:10.593Z,2.67
2023-04-02T00:57:37.761Z,2.67
2023-04-02T01:00:24.018Z,2.66
2023-04-02T01:03:29.325Z,2.64
2023-04-02T01:06:03.009Z,2.65
2023-04-02T01:08:34.208Z,2.65
2023-04-02T01:11:16.129Z,2.64
2023-04-02T01:14:03.877Z,2.64
2023-04-02T01:16:30.857Z,2.60
2023-04-02T01:19:06.645Z,2.65
2023-04-02T01:22:12.214Z,2.60
2023-04-02T01:24:39.038Z,2.59
2023-04-02T01:27:15.101Z,2.58
2023-04-02T01:29:52.958Z,2.60
2023-04-02T01:32:22.877Z,2.57
2023-04-02T01:34:51.946Z,2.55
2023-04-02T01:37:24.586Z,2.50
2023-04-02T01:40:14.814Z,2.49
2023-04-02T01:42:49.558Z,2.48
2023-04-02T01:45:19.847Z,2.48
2023-04-02T01:47:46.879Z,2.49
2023-04-02T01:50:19.619Z,2.55
2023-04-02T01:52:54.024Z,2.51
2023-04-02T01:55:34.992Z,2.51
2023-04-02T01:58:04.053Z,2.47
2023-04-02T02:00:32.595Z,2.47
2023-04-02T02:03:01.368Z,2.50
2023-04-02T02:05:29.388Z,2.52
2023-04-02T02:07:58.410Z,2.52
2023-04-02T02:10:43.310Z,2.48
2023-04-02T02:13:16.157Z,2.46
2023-04-02T02:15:42.906Z,2.50
2023-04-02T02:18:12.749Z,2.51
2023-04-02T02:20:40.043Z,2.49
2023-04-02T02:23:07.485Z,2.46
2023-04-02T02:25:36.538Z,2.47
2023-04-02T02:28:26.652Z,2.45
2023-04-02T02:30:59.108Z,2.41
2023-04-02T02:33:49.274Z,2.41
2023-04-02T02:36:33.691Z,2.42
2023-04-02T02:39:29.721Z,2.40
2023-04-02T02:42:14.754Z,2.39
2023-04-02T02:44:46.634Z,2.39
2023-04-02T02:47:19.146Z,2.39
2023-04-02T02:49:50.129Z,2.40
2023-04-02T02:52:20.627Z,2.40
2023-04-02T02:54:52.055Z,2.43
2023-04-02T02:57:32.372Z,2.42
2023-04-02T03:00:01.865Z,2.34
2023-04-02T03:02:29.262Z,2.39
2023-04-02T03:04:56.948Z,2.36
2023-04-02T03:07:26.914Z,2.41
2023-04-02T03:10:12.552Z,2.40
2023-04-02T03:13:10.008Z,2.39
2023-04-02T03:15:51.455Z,2.35
2023-04-02T03:18:39.593Z,2.31
2023-04-02T03:21:11.917Z,2.30
2023-04-02T03:23:51.408Z,2.32
2023-04-02T03:26:25.837Z,2.31
2023-04-02T03:29:05.024Z,2.37
2023-04-02T03:31:38.154Z,2.42
2023-04-02T03:34:13.721Z,2.42
2023-04-02T03:36:49.251Z,2.44
2023-04-02T03:39:41.915Z,2.45
2023-04-02T03:42:21.805Z,2.44
2023-04-02T03:44:55.148Z,2.48
2023-04-02T03:47:43.107Z,2.48
2023-04-02T03:50:28.120Z,2.50
2023-04-02T03:52:54.874Z,2.54
2023-04-02T03:55:29.217Z,2.55
2023-04-02T03:58:19.008Z,2.55
2023-04-02T04:00:54.959Z,2.55
2023-04-02T04:03:30.917Z,2.57
2023-04-02T04:06:01.568Z,2.58
2023-04-02T04:08:42.596Z,2.56
2023-04-02T04:11:16.196Z,2.54
2023-04-02T04:14:09.907Z,2.51
2023-04-02T04:16:43.059Z,2.57
2023-04-02T04:19:32.888Z,2.51
2023-04-02T04:22:14.962Z,2.54
2023-04-02T04:24:45.757Z,2.48
2023-04-02T04:27:33.934Z,2.47
2023-04-02T04:30:06.474Z,2.47
2023-04-02T04:32:50.337Z,2.49
2023-04-02T04:35:26.892Z,2.54
2023-04-02T04:38:12.313Z,2.53
2023-04-02T04:40:50.569Z,2.55
2023-04-02T04:43:24.935Z,2.54
2023-04-02T04:45:58.396Z,2.57
2023-04-02T04:48:36.830Z,2.55
2023-04-02T04:51:08.938Z,2.61
2023-04-02T04:53:48.518Z,2.58
2023-04-02T04:56:19.929Z,2.60
2023-04-02T04:59:22.190Z,2.62
2023-04-02T05:02:00.620Z,2.58
2023-04-02T05:04:40.159Z,2.58
2023-04-02T05:07:28.410Z,2.61
2023-04-02T05:10:04.138Z,2.60
2023-04-02T05:12:37.873Z,2.61
2023-04-02T05:15:11.604Z,2.66
2023-04-02T05:17:42.688Z,2.66
2023-04-02T05:20:18.333Z,2.69
2023-04-02T05:23:08.404Z,2.65
2023-04-02T05:25:35.636Z,2.66
2023-04-02T05:28:11.637Z,2.67
2023-04-02T05:30:47.286Z,2.70
2023-04-02T05:33:17.970Z,2.70
2023-04-02T05:35:53.660Z,2.67
2023-04-02T05:38:23.989Z,2.70
2023-04-02T05:41:17.488Z,2.71
2023-04-02T05:43:49.065Z,2.76
2023-04-02T05:46:18.784Z,2.80
2023-04-02T05:48:51.870Z,2.79
2023-04-02T05:51:44.897Z,2.83
2023-04-02T05:54:31.634Z,2.85
2023-04-02T05:57:10.173Z,2.82
2023-04-02T05:59:44.830Z,2.86
2023-04-02T06:02:24.281Z,2.91
2023-04-02T06:04:57.660Z,2.88
2023-04-02T06:07:30.211Z,2.93
2023-04-02T06:10:08.660Z,2.96
2023-04-02T06:12:47.047Z,2.94
2023-04-02T06:15:19.598Z,2.98
2023-04-02T06:17:52.778Z,3.04
2023-04-02T06:20:21.395Z,3.06
2023-04-02T06:22:58.409Z,3.12
2023-04-02T06:25:32.568Z,3.11
2023-04-02T06:28:01.930Z,3.15
2023-04-02T06:30:32.932Z,3.18
2023-04-02T06:32:59.808Z,3.14
2023-04-02T06:35:27.320Z,3.06
2023-04-02T06:37:57.631Z,3.09
2023-04-02T06:40:46.455Z,3.07
2023-04-02T06:43:43.238Z,3.12
2023-04-02T06:46:18.508Z,3.12
2023-04-02T06:48:47.893Z,3.12
2023-04-02T06:51:17.044Z,3.17
2023-04-02T06:53:47.306Z,3.24
2023-04-02T06:56:45.109Z,3.19
2023-04-02T06:59:13.005Z,3.21
2023-04-02T07:01:53.841Z,3.27
2023-04-02T07:04:21.849Z,3.28
2023-04-02T07:06:48.861Z,3.34
2023-04-02T07:09:15.624Z,3.40
2023-04-02T07:11:42.380Z,3.48
2023-04-02T07:14:13.184Z,3.50
2023-04-02T07:16:44.199Z,3.55
2023-04-02T07:19:20.222Z,3.57
2023-04-02T07:21:47.507Z,3.70
2023-04-02T07:24:14.725Z,3.62
2023-04-02T07:26:42.122Z,3.98
2023-04-02T07:29:13.756Z,3.92
2023-04-02T07:31:43.912Z,3.86
2023-04-02T07:34:10.727Z,3.75
2023-04-02T07:36:37.732Z,3.71
2023-04-02T07:39:05.584Z,3.74
2023-04-02T07:41:32.332Z,3.60
2023-04-02T07:43:59.203Z,3.61
2023-04-02T07:46:26.160Z,3.60
2023-04-02T07:48:53.026Z,3.65
2023-04-02T07:51:23.044Z,3.64
2023-04-02T07:53:51.363Z,3.92
2023-04-02T07:56:21.183Z,3.97
2023-04-02T07:58:48.051Z,4.06
2023-04-02T08:01:21.433Z,4.69
2023-04-02T08:03:48.389Z,5.32
2023-04-02T08:06:15.215Z,5.72
2023-04-02T08:08:42.210Z,6.01
2023-04-02T08:11:09.847Z,6.09
2023-04-02T08:13:36.768Z,6.32
2023-04-02T08:16:05.084Z,5.98
2023-04-02T08:18:32.031Z,5.86
2023-04-02T08:20:59.503Z,6.09
2023-04-02T08:23:27.371Z,6.11
2023-04-02T08:25:58.074Z,6.26
2023-04-02T08:28:24.856Z,6.22
2023-04-02T08:30:52.809Z,6.27
2023-04-02T08:33:20.024Z,5.69
2023-04-02T08:35:48.017Z,5.78
2023-04-02T08:38:16.708Z,6.13
2023-04-02T08:40:46.539Z,6.39
2023-04-02T08:43:41.020Z,7.08
2023-04-02T08:46:26.897Z,8.06
2023-04-02T08:48:57.230Z,7.88
2023-04-02T08:51:36.708Z,7.63
2023-04-02T08:54:29.061Z,7.08
2023-04-02T08:57:02.404Z,6.91
2023-04-02T08:59:41.959Z,6.05
2023-04-02T09:02:30.636Z,5.70
2023-04-02T09:05:00.188Z,5.33
2023-04-02T09:07:28.220Z,5.23
2023-04-02T09:09:55.800Z,4.99
2023-04-02T09:12:26.834Z,5.02
2023-04-02T09:15:12.352Z,4.92
2023-04-02T09:17:53.977Z,4.80
2023-04-02T09:20:24.729Z,4.82
2023-04-02T09:22:53.376Z,4.87
2023-04-02T09:25:29.923Z,4.83
2023-04-02T09:28:00.960Z,4.81
2023-04-02T09:30:33.446Z,4.78
2023-04-02T09:33:08.012Z,4.91
2023-04-02T09:35:37.792Z,5.06
2023-04-02T09:38:07.408Z,5.01
2023-04-02T09:40:42.573Z,5.02
2023-04-02T09:43:15.780Z,5.15
2023-04-02T09:45:44.513Z,5.20
2023-04-02T09:48:45.785Z,5.07
2023-04-02T09:51:12.812Z,5.09
2023-04-02T09:53:42.566Z,4.98
2023-04-02T09:56:19.101Z,4.89
2023-04-02T09:59:01.605Z,5.00
2023-04-02T10:01:44.085Z,5.00
2023-04-02T10:04:29.862Z,5.29
2023-04-02T10:06:58.122Z,6.48
2023-04-02T10:09:33.664Z,7.19
2023-04-02T10:12:02.983Z,7.84
2023-04-02T10:14:45.718Z,8.24
2023-04-02T10:17:18.853Z,8.68
2023-04-02T10:20:28.476Z,9.45
2023-04-02T10:22:56.037Z,8.14
2023-04-02T10:25:26.424Z,7.84
2023-04-02T10:28:05.124Z,7.92
2023-04-02T10:30:58.122Z,7.33
2023-04-02T10:33:33.350Z,7.17
2023-04-02T10:36:23.252Z,6.98
2023-04-02T10:39:20.230Z,6.95
2023-04-02T10:41:54.008Z,6.76
2023-04-02T10:44:26.363Z,6.41
2023-04-02T10:46:58.991Z,6.38
2023-04-02T10:50:01.421Z,6.37
2023-04-02T10:52:38.439Z,6.53
2023-04-02T10:55:15.744Z,6.34
2023-04-02T10:57:44.273Z,6.24
2023-04-02T11:00:11.417Z,6.21
2023-04-02T11:02:52.442Z,6.25
2023-04-02T11:05:27.296Z,6.23
2023-04-02T11:08:18.366Z,6.10
2023-04-02T11:10:53.648Z,6.11
2023-04-02T11:13:29.497Z,6.30
2023-04-02T11:15:56.627Z,6.34
2023-04-02T11:18:37.486Z,6.37
2023-04-02T11:21:28.416Z,6.17
2023-04-02T11:24:02.889Z,6.04
2023-04-02T11:26:44.774Z,5.96
2023-04-02T11:29:41.587Z,6.16
2023-04-02T11:32:20.460Z,6.31
2023-04-02T11:34:49.546Z,6.23
2023-04-02T11:37:29.527Z,6.10
2023-04-02T11:39:59.414Z,6.25
2023-04-02T11:42:31.583Z,6.27
2023-04-02T11:45:24.452Z,6.43
2023-04-02T11:48:00.242Z,6.55
2023-04-02T11:50:39.617Z,6.49
2023-04-02T11:53:12.066Z,6.44
2023-04-02T11:55:45.777Z,6.35
2023-04-02T11:58:29.753Z,6.35
2023-04-02T12:01:16.502Z,6.39
2023-04-02T12:04:01.725Z,6.31
2023-04-02T12:06:47.363Z,6.23
2023-04-02T12:09:42.580Z,6.38
2023-04-02T12:12:24.427Z,6.57
2023-04-02T12:14:56.993Z,6.70
2023-04-02T12:17:31.758Z,6.79
2023-04-02T12:20:10.091Z,7.01
2023-04-02T12:22:51.101Z,7.14
2023-04-02T12:25:20.900Z,7.40
2023-04-02T12:28:02.989Z,7.67
2023-04-02T12:30:29.748Z,7.73
2023-04-02T12:33:15.954Z,7.84
2023-04-02T12:35:44.338Z,7.79
2023-04-02T12:38:24.873Z,7.62
2023-04-02T12:40:59.515Z,7.49
2023-04-02T12:43:31.546Z,7.14
2023-04-02T12:46:02.363Z,7.15
2023-04-02T12:48:30.860Z,7.02
2023-04-02T12:50:58.327Z,6.93
2023-04-02T12:53:40.517Z,7.20
2023-04-02T12:56:10.966Z,7.46
2023-04-02T12:58:40.838Z,7.57
2023-04-02T13:01:14.600Z,7.80
2023-04-02T13:03:42.080Z,7.91
2023-04-02T13:06:22.072Z,7.97
2023-04-02T13:08:49.371Z,8.09
2023-04-02T13:11:16.497Z,8.24
2023-04-02T13:13:46.122Z,8.15
2023-04-02T13:16:12.854Z,8.53
2023-04-02T13:18:39.738Z,9.12
2023-04-02T13:21:28.584Z,9.54
2023-04-02T13:23:55.926Z,9.24
2023-04-02T13:26:27.976Z,8.71
2023-04-02T13:29:29.397Z,8.30
2023-04-02T13:32:02.267Z,8.04
2023-04-02T13:34:29.611Z,8.06
2023-04-02T13:36:57.579Z,7.90
2023-04-02T13:39:26.259Z,8.02
2023-04-02T13:41:57.270Z,8.43
2023-04-02T13:44:27.179Z,8.43
2023-04-02T13:46:55.856Z,8.36
2023-04-02T13:49:24.477Z,8.13
2023-04-02T13:51:58.079Z,7.86
2023-04-02T13:54:43.489Z,7.65
2023-04-02T13:57:10.853Z,7.47
2023-04-02T13:59:37.656Z,7.48
2023-04-02T14:02:13.979Z,7.67
2023-04-02T14:04:45.376Z,8.00
2023-04-02T14:07:20.613Z,8.48
2023-04-02T14:10:00.107Z,8.49
2023-04-02T14:12:41.662Z,8.00
2023-04-02T14:15:32.328Z,7.97
2023-04-02T14:18:20.143Z,8.04
2023-04-02T14:21:14.790Z,8.01
2023-04-02T14:23:59.688Z,7.97
2023-04-02T14:26:39.819Z,8.05
2023-04-02T14:29:12.817Z,8.23
2023-04-02T14:32:02.542Z,8.14
2023-04-02T14:34:47.044Z,7.92
2023-04-02T14:37:39.709Z,7.77
2023-04-02T14:40:29.149Z,7.58
2023-04-02T14:43:02.505Z,7.53
2023-04-02T14:45:37.941Z,7.75
2023-04-02T14:48:31.437Z,8.01
2023-04-02T14:51:12.626Z,8.06
2023-04-02T14:53:52.898Z,8.17
2023-04-02T14:56:31.167Z,8.01
2023-04-02T14:59:07.744Z,7.90
2023-04-02T15:01:41.502Z,8.08
2023-04-02T15:04:18.178Z,8.00
2023-04-02T15:06:50.362Z,7.67
2023-04-02T15:09:24.933Z,7.43
2023-04-02T15:12:08.294Z,7.23
2023-04-02T15:14:44.518Z,7.08
2023-04-02T15:17:12.255Z,7.11
2023-04-02T15:19:39.263Z,7.14
2023-04-02T15:22:32.021Z,7.41
2023-04-02T15:25:27.625Z,7.81
2023-04-02T15:28:10.846Z,8.23
2023-04-02T15:30:42.116Z,7.73
2023-04-02T15:33:39.013Z,7.46
2023-04-02T15:36:33.423Z,7.42
2023-04-02T15:39:36.156Z,7.65
2023-04-02T15:42:06.165Z,7.92
2023-04-02T15:44:36.770Z,7.59
2023-04-02T15:47:24.889Z,7.45
2023-04-02T15:50:13.411Z,7.21
2023-04-02T15:53:09.180Z,7.10
2023-04-02T15:55:46.556Z,7.00
2023-04-02T15:58:25.184Z,7.15
2023-04-02T16:01:04.262Z,6.85
2023-04-02T16:03:46.499Z,6.59
2023-04-02T16:06:28.557Z,6.45
2023-04-02T16:09:32.609Z,6.99
2023-04-02T16:12:12.018Z,7.57
2023-04-02T16:14:40.507Z,8.25
2023-04-02T16:17:25.631Z,8.06
2023-04-02T16:20:26.688Z,8.53
2023-04-02T16:23:02.675Z,7.59
2023-04-02T16:25:39.631Z,6.81
2023-04-02T16:28:23.771Z,6.49
2023-04-02T16:31:01.330Z,6.24
2023-04-02T16:33:44.610Z,6.64
2023-04-02T16:36:28.503Z,6.99
2023-04-02T16:39:01.459Z,6.86
2023-04-02T16:41:51.103Z,6.84
2023-04-02T16:44:39.541Z,6.65
2023-04-02T16:47:11.983Z,6.26
2023-04-02T16:49:52.090Z,6.02
2023-04-02T16:52:49.556Z,5.84
2023-04-02T16:55:31.539Z,5.69
2023-04-02T16:58:16.734Z,5.70
2023-04-02T17:00:53.653Z,5.68
2023-04-02T17:03:32.438Z,5.62
2023-04-02T17:06:08.539Z,5.52
2023-04-02T17:08:43.485Z,5.47
2023-04-02T17:11:21.594Z,5.41
2023-04-02T17:14:06.222Z,5.40
2023-04-02T17:16:37.398Z,5.31
2023-04-02T17:19:10.573Z,5.25
2023-04-02T17:21:40.277Z,5.19
2023-04-02T17:24:06.980Z,5.15
2023-04-02T17:26:37.923Z,5.03
2023-04-02T17:29:13.204Z,4.98
2023-04-02T17:31:42.228Z,4.89
2023-04-02T17:34:17.895Z,4.87
2023-04-02T17:37:03.910Z,4.80
2023-04-02T17:39:46.095Z,4.78
2023-04-02T17:42:12.769Z,4.74
2023-04-02T17:44:52.789Z,4.56
2023-04-02T17:47:28.680Z,4.54
2023-04-02T17:50:20.079Z,4.53
2023-04-02T17:53:03.655Z,4.49
2023-04-02T17:55:40.847Z,4.46
2023-04-02T17:58:28.665Z,4.37
2023-04-02T18:01:32.001Z,4.25
2023-04-02T18:04:23.359Z,4.31
2023-04-02T18:07:41.123Z,4.24
2023-04-02T18:10:54.378Z,4.21
2023-04-02T18:13:38.331Z,4.20
2023-04-02T18:16:34.176Z,4.14
2023-04-02T18:19:06.124Z,4.11
2023-04-02T18:21:54.581Z,4.13
2023-04-02T18:24:41.241Z,4.06
2023-04-02T18:27:17.087Z,4.04
2023-04-02T18:30:09.683Z,4.01
2023-04-02T18:32:47.521Z,3.94
2023-04-02T18:35:14.230Z,3.93
2023-04-02T18:37:58.298Z,3.88
2023-04-02T18:40:52.959Z,3.86
2023-04-02T18:43:47.469Z,3.82
2023-04-02T18:46:55.723Z,3.79
2023-04-02T18:49:25.523Z,3.71
2023-04-02T18:52:02.253Z,3.70
2023-04-02T18:54:45.971Z,3.68
2023-04-02T18:57:17.618Z,3.65
2023-04-02T19:00:06.551Z,3.63
2023-04-02T19:02:56.071Z,3.58
2023-04-02T19:05:22.833Z,3.50
2023-04-02T19:07:55.498Z,3.45
2023-04-02T19:10:34.393Z,3.44
2023-04-02T19:13:01.665Z,3.39
2023-04-02T19:15:47.003Z,3.36
2023-04-02T19:18:31.946Z,3.31
2023-04-02T19:21:15.188Z,3.30
2023-04-02T19:24:00.302Z,3.27
2023-04-02T19:26:35.654Z,3.20
2023-04-02T19:29:28.565Z,3.18
2023-04-02T19:32:00.358Z,3.19
2023-04-02T19:34:33.061Z,3.15
2023-04-02T19:37:22.851Z,3.11
2023-04-02T19:40:17.414Z,3.07
2023-04-02T19:42:49.296Z,3.02
2023-04-02T19:45:31.887Z,2.96
2023-04-02T19:48:03.490Z,2.95
2023-04-02T19:50:30.534Z,2.84
2023-04-02T19:52:57.855Z,2.79
2023-04-02T19:55:24.732Z,2.76
2023-04-02T19:57:54.559Z,2.77
2023-04-02T20:00:21.841Z,2.75
2023-04-02T20:02:48.587Z,2.71
2023-04-02T20:05:15.461Z,2.70
2023-04-02T20:07:42.280Z,2.67
2023-04-02T20:10:09.747Z,2.66
2023-04-02T20:12:36.763Z,2.59
2023-04-02T20:15:07.559Z,2.51
2023-04-02T20:17:34.446Z,2.49
2023-04-02T20:20:01.303Z,2.43
2023-04-02T20:22:28.078Z,2.42
2023-04-02T20:24:55.104Z,2.32
2023-04-02T20:27:21.852Z,2.30
2023-04-02T20:29:48.913Z,2.28
2023-04-02T20:32:17.653Z,2.26
2023-04-02T20:34:44.704Z,2.21
2023-04-02T20:37:11.503Z,2.18
2023-04-02T20:39:39.230Z,2.14
2023-04-02T20:42:06.327Z,2.05
2023-04-02T20:44:33.110Z,2.07
2023-04-02T20:46:59.888Z,2.03
2023-04-02T20:49:26.763Z,2.01
2023-04-02T20:51:53.519Z,1.96
2023-04-02T20:54:20.491Z,1.95
2023-04-02T20:56:47.564Z,1.92
2023-04-02T20:59:14.273Z,1.88
2023-04-02T21:01:41.077Z,1.86
2023-04-02T21:04:08.330Z,1.85
2023-04-02T21:06:38.336Z,1.83
2023-04-02T21:09:08.571Z,1.77
2023-04-02T21:11:36.944Z,1.75
2023-04-02T21:14:04.498Z,1.74
2023-04-02T21:16:32.313Z,1.60
2023-04-02T21:19:05.475Z,1.53
2023-04-02T21:21:33.332Z,1.54
2023-04-02T21:24:01.239Z,1.59
2023-04-02T21:26:30.970Z,1.55
2023-04-02T21:28:59.159Z,1.54
2023-04-02T21:31:30.903Z,1.53
2023-04-02T21:33:59.288Z,1.47
2023-04-02T21:36:27.332Z,1.45
2023-04-02T21:38:57.121Z,1.43
2023-04-02T21:41:32.861Z,1.39
2023-04-02T21:44:01.174Z,1.37
2023-04-02T21:46:30.126Z,1.35
2023-04-02T21:48:58.941Z,1.33
2023-04-02T21:51:31.218Z,1.24
2023-04-02T21:53:58.598Z,1.21
2023-04-02T21:56:28.648Z,1.20
2023-04-02T21:58:57.109Z,1.21
2023-04-02T22:01:28.132Z,1.20
2023-04-02T22:03:57.139Z,1.21
2023-04-02T22:06:26.534Z,1.16
2023-04-02T22:08:56.439Z,1.18
2023-04-02T22:11:32.059Z,1.10
2023-04-02T22:13:59.602Z,1.10
2023-04-02T22:16:28.619Z,1.08
2023-04-02T22:18:57.565Z,1.06
2023-04-02T22:21:24.600Z,1.02
2023-04-02T22:23:51.717Z,0.98
2023-04-02T22:26:20.209Z,0.98
2023-04-02T22:28:47.145Z,0.96
2023-04-02T22:31:17.569Z,0.96
2023-04-02T22:33:45.982Z,0.95
2023-04-02T22:36:16.445Z,0.94
2023-04-02T22:38:43.284Z,0.89
2023-04-02T22:41:19.303Z,0.88
2023-04-02T22:43:46.192Z,0.87
2023-04-02T22:46:15.968Z,0.87
2023-04-02T22:48:43.821Z,0.85
2023-04-02T22:51:11.946Z,0.87
2023-04-02T22:53:39.603Z,0.82
2023-04-02T22:56:15.658Z,0.83
2023-04-02T22:58:43.151Z,0.80
2023-04-02T23:01:25.245Z,0.77
2023-04-02T23:03:54.521Z,0.78
2023-04-02T23:06:21.896Z,0.79
2023-04-02T23:08:48.884Z,0.74
2023-04-02T23:11:22.149Z,0.74
2023-04-02T23:13:50.585Z,0.71
2023-04-02T23:16:17.943Z,0.72
2023-04-02T23:18:48.172Z,0.72
2023-04-02T23:21:16.556Z,0.71
2023-04-02T23:23:44.020Z,0.71
2023-04-02T23:26:14.753Z,0.69
2023-04-02T23:28:41.916Z,0.73
2023-04-02T23:31:12.648Z,0.72
2023-04-02T23:33:40.034Z,0.70
2023-04-02T23:36:09.580Z,0.66
2023-04-02T23:38:36.449Z,0.68
2023-04-02T23:41:03.300Z,0.69
2023-04-02T23:43:30.083Z,0.62
2023-04-02T23:45:56.892Z,0.63
2023-04-02T23:48:23.735Z,0.67
2023-04-02T23:50:50.603Z,0.66
2023-04-02T23:53:18.839Z,0.62
2023-04-02T23:55:46.033Z,0.62
2023-04-02T23:58:12.832Z,0.60
